Time,TemperatureF,DewpointF,PressureIn,WindDirection,WindDirectionDegrees,WindSpeedMPH,WindSpeedGustMPH,Humidity,HourlyPrecipIn,Conditions,Clouds,dailyrainin,SoftwareType,DateUTC
2013-03-18 04:50:00,27.2,26.5,29.61,South,180,15.0,22.0,97,0.00,,SKC,0.00,VWS V14.01,2013-03-18 09:50:00,
2013-03-18 05:08:00,27.6,27.1,29.60,South,184,12.0,15.0,98,0.00,,SKC,0.00,VWS V14.01,2013-03-18 10:08:00,
2013-03-18 05:13:00,27.6,27.1,29.60,SSW,193,16.0,16.0,98,0.00,,SKC,0.00,VWS V14.01,2013-03-18 10:13:00,
2013-03-18 05:18:00,27.9,27.4,29.59,South,182,17.0,17.0,98,0.00,,SKC,0.00,VWS V14.01,2013-03-18 10:18:00,
2013-03-18 05:23:00,28.1,27.6,29.59,SSW,203,18.0,20.0,98,0.00,,SKC,0.00,VWS V14.01,2013-03-18 10:23:00,
2013-03-18 05:28:00,28.4,27.9,29.59,South,185,14.0,20.0,98,0.00,,SKC,0.00,VWS V14.01,2013-03-18 10:28:00,
2013-03-18 05:33:00,28.5,28.0,29.58,South,191,12.0,18.0,98,0.00,,SKC,0.00,VWS V14.01,2013-03-18 10:33:00,
2013-03-18 05:38:00,28.5,28.0,29.58,SSW,200,14.0,19.0,98,0.00,,SKC,0.00,VWS V14.01,2013-03-18 10:38:00,
2013-03-18 05:43:00,28.5,28.0,29.58,SSW,209,15.0,15.0,98,0.00,,SKC,0.00,VWS V14.01,2013-03-18 10:43:00,
2013-03-18 05:48:00,28.5,28.0,29.58,SSW,198,17.0,17.0,98,0.00,,SKC,0.00,VWS V14.01,2013-03-18 10:48:00,
2013-03-18 05:53:00,28.7,28.2,29.58,SSW,198,13.0,20.0,98,0.00,,SKC,0.00,VWS V14.01,2013-03-18 10:53:00,
2013-03-18 05:58:00,28.7,28.2,29.58,SSW,209,18.0,24.0,98,0.00,,SKC,0.00,VWS V14.01,2013-03-18 10:58:00,
2013-03-18 07:10:00,29.5,29.0,29.55,SW,225,18.0,27.0,98,0.00,,SKC,0.00,VWS V14.01,2013-03-18 12:10:00,
2013-03-18 07:23:00,29.5,29.0,29.55,SW,225,18.0,27.0,98,0.00,,SKC,0.00,VWS V14.01,2013-03-18 12:23:00,
2013-03-18 07:28:00,28.1,27.6,29.56,WNW,285,16.0,19.0,98,0.00,,SKC,0.00,VWS V14.01,2013-03-18 12:28:00,
2013-03-18 07:33:00,27.8,27.1,29.57,WNW,287,10.0,13.0,97,0.00,,SKC,0.00,VWS V14.01,2013-03-18 12:33:00,
2013-03-18 07:38:00,27.6,26.9,29.57,West,281,10.0,16.0,97,0.00,,SKC,0.00,VWS V14.01,2013-03-18 12:38:00,
2013-03-18 07:43:00,27.2,26.5,29.57,West,278,12.0,14.0,97,0.00,,SKC,0.00,VWS V14.01,2013-03-18 12:43:00,
2013-03-18 07:48:00,26.1,25.1,29.57,WNW,282,14.0,18.0,96,0.00,,SKC,0.00,VWS V14.01,2013-03-18 12:48:00,
2013-03-18 07:54:00,25.6,24.4,29.57,WNW,291,8.0,8.0,95,0.00,,SKC,0.00,VWS V14.01,2013-03-18 12:54:00,
2013-03-18 07:59:00,25.4,24.2,29.57,WNW,284,10.0,14.0,95,0.00,,SKC,0.00,VWS V14.01,2013-03-18 12:59:00,
2013-03-18 08:04:00,25.1,23.9,29.57,West,278,17.0,17.0,95,0.00,,SKC,0.00,VWS V14.01,2013-03-18 13:04:00,
2013-03-18 09:50:00,16.7,12.4,29.61,NW,315,8.0,14.0,83,0.00,,SKC,0.00,VWS V14.01,2013-03-18 14:50:00,
2013-03-18 10:04:00,16.7,12.4,29.61,NW,315,8.0,14.0,83,0.00,,SKC,0.00,VWS V14.01,2013-03-18 15:04:00,
2013-03-18 10:09:00,16.9,12.4,29.62,NW,306,11.0,11.0,82,0.00,,SKC,0.00,VWS V14.01,2013-03-18 15:09:00,
2013-03-18 10:14:00,16.5,12.0,29.62,WNW,292,10.0,11.0,82,0.00,,SKC,0.00,VWS V14.01,2013-03-18 15:14:00,
2013-03-18 10:19:00,16.5,12.0,29.62,NW,316,6.0,11.0,82,0.00,,SKC,0.00,VWS V14.01,2013-03-18 15:19:00,
2013-03-18 10:24:00,16.5,12.0,29.62,NW,308,7.0,12.0,82,0.00,,SKC,0.00,VWS V14.01,2013-03-18 15:24:00,
2013-03-18 10:29:00,16.7,12.2,29.62,WNW,289,10.0,12.0,82,0.00,,SKC,0.00,VWS V14.01,2013-03-18 15:29:00,
2013-03-18 10:34:00,16.1,11.3,29.63,NW,320,7.0,16.0,81,0.00,,SKC,0.00,VWS V14.01,2013-03-18 15:34:00,
2013-03-18 10:39:00,16.1,11.3,29.63,NW,304,7.0,16.0,81,0.00,,SKC,0.00,VWS V14.01,2013-03-18 15:39:00,
2013-03-18 10:44:00,15.6,10.8,29.63,NW,311,6.0,7.0,81,0.00,,SKC,0.00,VWS V14.01,2013-03-18 15:44:00,
2013-03-18 10:49:00,15.9,10.8,29.64,WNW,288,7.0,12.0,80,0.00,,SKC,0.00,VWS V14.01,2013-03-18 15:49:00,
2013-03-18 10:54:00,15.7,10.6,29.64,NW,308,6.0,9.0,80,0.00,,SKC,0.00,VWS V14.01,2013-03-18 15:54:00,
2013-03-18 10:59:00,15.4,10.4,29.64,WNW,298,5.0,9.0,80,0.00,,SKC,0.00,VWS V14.01,2013-03-18 15:59:00,
2013-03-18 11:04:00,15.1,10.1,29.64,NNW,340,4.0,13.0,80,0.00,,SKC,0.00,VWS V14.01,2013-03-18 16:04:00,
2013-03-18 11:09:00,14.9,9.6,29.64,NW,320,6.0,13.0,79,0.00,,SKC,0.00,VWS V14.01,2013-03-18 16:09:00,
2013-03-18 11:14:00,15.1,9.8,29.64,WNW,296,11.0,12.0,79,0.00,,SKC,0.00,VWS V14.01,2013-03-18 16:14:00,
2013-03-18 11:19:00,14.9,9.3,29.64,WNW,298,6.0,12.0,78,0.00,,SKC,0.00,VWS V14.01,2013-03-18 16:19:00,
2013-03-18 11:24:00,14.9,9.3,29.64,NW,304,8.0,14.0,78,0.00,,SKC,0.00,VWS V14.01,2013-03-18 16:24:00,
2013-03-18 11:29:00,14.9,9.3,29.64,NW,312,4.0,19.0,78,0.00,,SKC,0.00,VWS V14.01,2013-03-18 16:29:00,
2013-03-18 11:35:00,15.2,9.6,29.64,NW,315,7.0,7.0,78,0.00,,SKC,0.00,VWS V14.01,2013-03-18 16:35:00,
2013-03-18 11:40:00,15.2,9.9,29.64,NNW,332,9.0,11.0,79,0.00,,SKC,0.00,VWS V14.01,2013-03-18 16:40:00,
2013-03-18 11:46:00,15.2,9.6,29.65,WNW,302,7.0,7.0,78,0.00,,SKC,0.00,VWS V14.01,2013-03-18 16:46:00,
2013-03-18 11:52:00,15.2,9.3,29.65,NW,322,7.0,7.0,77,0.00,,SKC,0.00,VWS V14.01,2013-03-18 16:52:00,
2013-03-18 11:57:00,15.4,9.5,29.65,NW,311,5.0,7.0,77,0.00,,SKC,0.00,VWS V14.01,2013-03-18 16:57:00,
2013-03-18 12:02:00,15.1,9.8,29.65,WNW,291,8.0,8.0,79,0.00,,SKC,0.00,VWS V14.01,2013-03-18 17:02:00,
2013-03-18 12:07:00,14.4,8.8,29.65,NW,325,7.0,10.0,78,0.00,,SKC,0.00,VWS V14.01,2013-03-18 17:07:00,
2013-03-18 12:12:00,14.6,9.0,29.65,NW,315,2.0,7.0,78,0.00,,SKC,0.00,VWS V14.01,2013-03-18 17:12:00,
2013-03-18 12:17:00,14.4,8.8,29.66,NW,304,6.0,6.0,78,0.00,,SKC,0.00,VWS V14.01,2013-03-18 17:17:00,
2013-03-18 12:22:00,14.4,8.8,29.66,NW,311,10.0,10.0,78,0.00,,SKC,0.00,VWS V14.01,2013-03-18 17:22:00,
2013-03-18 12:27:00,14.3,8.7,29.66,NW,312,5.0,10.0,78,0.00,,SKC,0.00,VWS V14.01,2013-03-18 17:27:00,
2013-03-18 12:32:00,14.8,8.3,29.66,NNW,344,7.0,7.0,75,0.00,,SKC,0.00,VWS V14.01,2013-03-18 17:32:00,
2013-03-18 12:37:00,15.1,8.6,29.66,WNW,295,7.0,10.0,75,0.00,,SKC,0.00,VWS V14.01,2013-03-18 17:37:00,
2013-03-18 12:42:00,15.1,8.6,29.66,NW,312,7.0,8.0,75,0.00,,SKC,0.00,VWS V14.01,2013-03-18 17:42:00,
2013-03-18 12:47:00,14.6,8.4,29.66,NW,313,10.0,10.0,76,0.00,,SKC,0.00,VWS V14.01,2013-03-18 17:47:00,
2013-03-18 12:52:00,14.4,8.5,29.66,NW,316,6.0,6.0,77,0.00,,SKC,0.00,VWS V14.01,2013-03-18 17:52:00,
2013-03-18 12:57:00,14.3,8.4,29.66,NNW,333,9.0,12.0,77,0.00,,SKC,0.00,VWS V14.01,2013-03-18 17:57:00,
2013-03-18 13:02:00,14.1,8.2,29.66,NW,318,6.0,11.0,77,0.00,,SKC,0.00,VWS V14.01,2013-03-18 18:02:00,
2013-03-18 13:07:00,14.3,8.4,29.66,NNW,337,5.0,12.0,77,0.00,,SKC,0.00,VWS V14.01,2013-03-18 18:07:00,
2013-03-18 13:13:00,14.0,8.4,29.66,WNW,289,7.0,7.0,78,0.00,,SKC,0.00,VWS V14.01,2013-03-18 18:13:00,
2013-03-18 13:18:00,14.0,8.4,29.66,NW,312,5.0,8.0,78,0.00,,SKC,0.00,VWS V14.01,2013-03-18 18:18:00,
2013-03-18 13:23:00,14.4,8.5,29.66,NW,323,3.0,3.0,77,0.00,,SKC,0.00,VWS V14.01,2013-03-18 18:23:00,
2013-03-18 13:28:00,14.3,8.4,29.66,NW,313,4.0,17.0,77,0.00,,SKC,0.00,VWS V14.01,2013-03-18 18:28:00,
2013-03-18 13:33:00,14.1,8.2,29.66,NNW,329,5.0,12.0,77,0.00,,SKC,0.00,VWS V14.01,2013-03-18 18:33:00,
2013-03-18 13:38:00,14.1,8.5,29.66,NW,320,10.0,11.0,78,0.00,,SKC,0.00,VWS V14.01,2013-03-18 18:38:00,
2013-03-18 13:43:00,14.0,8.1,29.66,NW,315,8.0,8.0,77,0.00,,SKC,0.00,VWS V14.01,2013-03-18 18:43:00,
2013-03-18 13:48:00,14.3,8.4,29.66,NW,319,16.0,16.0,77,0.00,,SKC,0.00,VWS V14.01,2013-03-18 18:48:00,
2013-03-18 13:53:00,14.3,8.4,29.66,NW,306,11.0,11.0,77,0.00,,SKC,0.00,VWS V14.01,2013-03-18 18:53:00,
2013-03-18 14:00:00,14.9,9.0,29.66,NNW,336,10.0,10.0,77,0.00,,SKC,0.00,VWS V14.01,2013-03-18 19:00:00,
2013-03-18 14:05:00,14.9,9.0,29.66,NW,320,5.0,10.0,77,0.00,,SKC,0.00,VWS V14.01,2013-03-18 19:05:00,
2013-03-18 14:10:00,14.8,8.9,29.66,NNW,328,7.0,16.0,77,0.00,,SKC,0.00,VWS V14.01,2013-03-18 19:10:00,
2013-03-18 14:15:00,15.1,9.2,29.66,NW,311,10.0,13.0,77,0.00,,SKC,0.00,VWS V14.01,2013-03-18 19:15:00,
2013-03-18 14:20:00,14.9,9.0,29.66,NW,318,11.0,14.0,77,0.00,,SKC,0.00,VWS V14.01,2013-03-18 19:20:00,
2013-03-18 14:25:00,14.9,9.6,29.66,NNW,336,3.0,3.0,79,0.00,,SKC,0.00,VWS V14.01,2013-03-18 19:25:00,
2013-03-18 14:30:00,14.6,9.3,29.66,NW,322,6.0,12.0,79,0.00,,SKC,0.00,VWS V14.01,2013-03-18 19:30:00,
2013-03-18 14:35:00,14.6,9.3,29.66,NW,309,5.0,8.0,79,0.00,,SKC,0.00,VWS V14.01,2013-03-18 19:35:00,
2013-03-18 14:42:00,15.4,10.6,29.66,North,356,6.0,6.0,81,0.00,,SKC,0.00,VWS V14.01,2013-03-18 19:42:00,
2013-03-18 14:50:00,14.6,8.1,29.66,NNW,335,13.0,13.0,75,0.00,,SKC,0.00,VWS V14.01,2013-03-18 19:50:00,
2013-03-18 14:55:00,15.1,8.6,29.66,NNW,329,11.0,17.0,75,0.00,,SKC,0.00,VWS V14.01,2013-03-18 19:55:00,
2013-03-18 15:00:00,15.1,8.6,29.66,NW,326,12.0,17.0,75,0.00,,SKC,0.00,VWS V14.01,2013-03-18 20:00:00,
2013-03-18 15:05:00,14.9,9.3,29.66,NW,322,6.0,6.0,78,0.00,,SKC,0.00,VWS V14.01,2013-03-18 20:05:00,
2013-03-18 15:12:00,15.1,8.6,29.66,NW,315,9.0,17.0,75,0.00,,SKC,0.00,VWS V14.01,2013-03-18 20:12:00,
2013-03-18 15:17:00,14.4,9.6,29.66,NW,312,6.0,9.0,81,0.00,,SKC,0.00,VWS V14.01,2013-03-18 20:17:00,
2013-03-18 15:22:00,14.4,9.6,29.66,NNW,328,10.0,10.0,81,0.00,,SKC,0.00,VWS V14.01,2013-03-18 20:22:00,
2013-03-18 15:27:00,13.8,9.1,29.66,NW,313,5.0,18.0,81,0.00,,SKC,0.00,VWS V14.01,2013-03-18 20:27:00,
2013-03-18 15:34:00,14.1,7.9,29.67,NW,322,6.0,6.0,76,0.00,,SKC,0.00,VWS V14.01,2013-03-18 20:34:00,
2013-03-18 15:40:00,14.4,8.5,29.67,NW,315,4.0,4.0,77,0.00,,SKC,0.00,VWS V14.01,2013-03-18 20:40:00,
2013-03-18 15:45:00,14.4,8.5,29.67,NNW,336,7.0,7.0,77,0.00,,SKC,0.00,VWS V14.01,2013-03-18 20:45:00,
2013-03-18 15:50:00,14.4,8.5,29.67,NNW,337,13.0,13.0,77,0.00,,SKC,0.00,VWS V14.01,2013-03-18 20:50:00,
2013-03-18 15:58:00,14.3,7.8,29.67,North,349,10.0,10.0,75,0.00,,SKC,0.00,VWS V14.01,2013-03-18 20:58:00,
2013-03-18 16:04:00,14.1,7.7,29.67,NNW,339,14.0,14.0,75,0.00,,SKC,0.00,VWS V14.01,2013-03-18 21:04:00,
2013-03-18 16:09:00,14.1,7.7,29.67,NNW,340,10.0,14.0,75,0.00,,SKC,0.00,VWS V14.01,2013-03-18 21:09:00,
2013-03-18 16:15:00,14.3,8.4,29.67,NNW,343,18.0,18.0,77,0.00,,SKC,0.00,VWS V14.01,2013-03-18 21:15:00,
2013-03-18 16:22:00,14.6,8.7,29.68,NW,318,8.0,8.0,77,0.00,,SKC,0.00,VWS V14.01,2013-03-18 21:22:00,
2013-03-18 16:29:00,14.3,8.1,29.68,NNW,335,7.0,7.0,76,0.00,,SKC,0.00,VWS V14.01,2013-03-18 21:29:00,
2013-03-18 16:34:00,14.1,7.9,29.68,NW,318,14.0,17.0,76,0.00,,SKC,0.00,VWS V14.01,2013-03-18 21:34:00,
2013-03-18 16:50:00,14.4,8.2,29.68,NW,315,12.0,27.0,76,0.00,,SKC,0.00,VWS V14.01,2013-03-18 21:50:00,
2013-03-18 17:11:00,14.8,8.3,29.69,NW,323,7.0,12.0,75,0.00,,SKC,0.00,VWS V14.01,2013-03-18 22:11:00,
2013-03-18 17:16:00,14.4,7.9,29.69,NNW,343,11.0,11.0,75,0.00,,SKC,0.00,VWS V14.01,2013-03-18 22:16:00,
2013-03-18 17:22:00,14.3,8.1,29.69,NW,320,9.0,9.0,76,0.00,,SKC,0.00,VWS V14.01,2013-03-18 22:22:00,
2013-03-18 17:27:00,14.1,7.9,29.69,NW,316,13.0,14.0,76,0.00,,SKC,0.00,VWS V14.01,2013-03-18 22:27:00,
2013-03-18 17:32:00,14.1,7.9,29.70,NW,319,17.0,17.0,76,0.00,,SKC,0.00,VWS V14.01,2013-03-18 22:32:00,
2013-03-18 17:37:00,14.0,7.8,29.70,NNW,337,6.0,17.0,76,0.00,,SKC,0.00,VWS V14.01,2013-03-18 22:37:00,
2013-03-18 17:42:00,14.1,7.9,29.70,NW,326,17.0,17.0,76,0.00,,SKC,0.00,VWS V14.01,2013-03-18 22:42:00,
2013-03-18 17:48:00,14.0,7.8,29.70,North,7,10.0,10.0,76,0.00,,SKC,0.00,VWS V14.01,2013-03-18 22:48:00,
2013-03-18 17:53:00,14.0,7.8,29.70,NNW,329,7.0,8.0,76,0.00,,SKC,0.00,VWS V14.01,2013-03-18 22:53:00,
2013-03-18 18:00:00,14.0,7.8,29.71,NW,325,8.0,8.0,76,0.00,,SKC,0.00,VWS V14.01,2013-03-18 23:00:00,
2013-03-18 18:08:00,13.8,7.9,29.71,NNW,333,21.0,21.0,77,0.00,,SKC,0.00,VWS V14.01,2013-03-18 23:08:00,
2013-03-18 18:13:00,13.5,7.4,29.71,North,353,10.0,14.0,76,0.00,,SKC,0.00,VWS V14.01,2013-03-18 23:13:00,
2013-03-18 18:20:00,13.6,7.5,29.71,NNW,330,6.0,6.0,76,0.00,,SKC,0.00,VWS V14.01,2013-03-18 23:20:00,
2013-03-18 18:25:00,13.6,7.2,29.71,NW,319,7.0,20.0,75,0.00,,SKC,0.00,VWS V14.01,2013-03-18 23:25:00,
2013-03-18 18:31:00,13.5,7.1,29.72,NW,326,11.0,11.0,75,0.00,,SKC,0.00,VWS V14.01,2013-03-18 23:31:00,
2013-03-18 18:36:00,13.5,7.1,29.72,NNW,336,11.0,11.0,75,0.00,,SKC,0.00,VWS V14.01,2013-03-18 23:36:00,
2013-03-18 18:41:00,13.1,6.7,29.72,NW,320,8.0,17.0,75,0.00,,SKC,0.00,VWS V14.01,2013-03-18 23:41:00,
2013-03-18 18:46:00,13.1,7.0,29.73,NNW,336,16.0,16.0,76,0.00,,SKC,0.00,VWS V14.01,2013-03-18 23:46:00,
2013-03-18 18:51:00,12.9,6.8,29.73,NNW,342,13.0,18.0,76,0.00,,SKC,0.00,VWS V14.01,2013-03-18 23:51:00,
2013-03-18 18:59:00,12.6,6.5,29.73,NW,323,6.0,6.0,76,0.00,,SKC,0.00,VWS V14.01,2013-03-18 23:59:00,
2013-03-18 19:05:00,12.4,6.6,29.74,NW,322,16.0,16.0,77,0.00,,SKC,0.00,VWS V14.01,2013-03-19 00:05:00,
2013-03-18 19:11:00,12.3,6.5,29.74,NNW,340,12.0,12.0,77,0.00,,SKC,0.00,VWS V14.01,2013-03-19 00:11:00,
2013-03-18 19:16:00,12.3,6.5,29.75,NNW,340,7.0,12.0,77,0.00,,SKC,0.00,VWS V14.01,2013-03-19 00:16:00,
2013-03-18 19:21:00,12.1,6.6,29.75,NNW,328,6.0,6.0,78,0.00,,SKC,0.00,VWS V14.01,2013-03-19 00:21:00,
2013-03-18 19:26:00,11.9,6.4,29.75,NW,313,8.0,8.0,78,0.00,,SKC,0.00,VWS V14.01,2013-03-19 00:26:00,
2013-03-18 19:32:00,11.9,6.4,29.76,NW,326,5.0,5.0,78,0.00,,SKC,0.00,VWS V14.01,2013-03-19 00:32:00,
2013-03-18 19:38:00,11.7,6.2,29.76,NW,312,12.0,12.0,78,0.00,,SKC,0.00,VWS V14.01,2013-03-19 00:38:00,
2013-03-18 19:43:00,11.6,6.1,29.76,NNW,336,7.0,14.0,78,0.00,,SKC,0.00,VWS V14.01,2013-03-19 00:43:00,
2013-03-18 19:48:00,11.4,5.9,29.77,NW,305,6.0,6.0,78,0.00,,SKC,0.00,VWS V14.01,2013-03-19 00:48:00,
2013-03-18 19:53:00,11.4,5.9,29.77,North,0,11.0,18.0,78,0.00,,SKC,0.00,VWS V14.01,2013-03-19 00:53:00,
2013-03-18 20:30:00,10.9,5.4,29.79,NNW,338,9.0,18.0,78,0.00,,SKC,0.00,VWS V14.01,2013-03-19 01:30:00,
2013-03-18 20:44:00,10.9,5.4,29.79,NNW,338,9.0,18.0,78,0.00,,SKC,0.00,VWS V14.01,2013-03-19 01:44:00,
2013-03-18 20:51:00,10.7,5.2,29.79,NW,313,7.0,7.0,78,0.00,,SKC,0.00,VWS V14.01,2013-03-19 01:51:00,
2013-03-18 20:58:00,10.7,5.2,29.79,NNW,336,7.0,7.0,78,0.00,,SKC,0.00,VWS V14.01,2013-03-19 01:58:00,
2013-03-18 21:06:00,10.5,5.0,29.81,NNW,330,10.0,10.0,78,0.00,,SKC,0.00,VWS V14.01,2013-03-19 02:06:00,
2013-03-18 21:10:00,10.5,5.0,29.81,NNW,338,9.0,17.0,78,0.00,,SKC,0.00,VWS V14.01,2013-03-19 02:10:00,
2013-03-18 21:11:00,10.5,5.0,29.81,NNW,344,7.0,16.0,78,0.00,,SKC,0.00,VWS V14.01,2013-03-19 02:11:00,
2013-03-18 21:16:00,10.5,5.0,29.82,NNW,343,10.0,10.0,78,0.00,,SKC,0.00,VWS V14.01,2013-03-19 02:16:00,
2013-03-18 21:21:00,10.4,4.9,29.82,NNW,333,5.0,9.0,78,0.00,,SKC,0.00,VWS V14.01,2013-03-19 02:21:00,
2013-03-18 21:28:00,10.4,5.2,29.82,NNW,329,6.0,6.0,79,0.00,,SKC,0.00,VWS V14.01,2013-03-19 02:28:00,
2013-03-18 21:33:00,10.4,5.2,29.83,NNW,337,11.0,11.0,79,0.00,,SKC,0.00,VWS V14.01,2013-03-19 02:33:00,
2013-03-18 21:38:00,10.2,5.0,29.83,NW,318,6.0,11.0,79,0.00,,SKC,0.00,VWS V14.01,2013-03-19 02:38:00,
2013-03-18 21:43:00,10.2,5.0,29.83,North,0,8.0,8.0,79,0.00,,SKC,0.00,VWS V14.01,2013-03-19 02:43:00,
2013-03-18 21:51:00,10.0,4.5,29.84,NNW,332,10.0,10.0,78,0.00,,SKC,0.00,VWS V14.01,2013-03-19 02:51:00,
2013-03-18 21:56:00,9.9,4.4,29.84,NNW,344,11.0,13.0,78,0.00,,SKC,0.00,VWS V14.01,2013-03-19 02:56:00,
2013-03-18 22:01:00,9.9,4.4,29.85,NNW,333,7.0,8.0,78,0.00,,SKC,0.00,VWS V14.01,2013-03-19 03:01:00,
2013-03-18 22:06:00,9.5,3.8,29.85,NNW,335,10.0,10.0,77,0.00,,SKC,0.00,VWS V14.01,2013-03-19 03:06:00,
2013-03-18 22:11:00,9.3,3.6,29.85,NW,326,12.0,16.0,77,0.00,,SKC,0.00,VWS V14.01,2013-03-19 03:11:00,
2013-03-18 22:16:00,9.2,3.5,29.85,NW,319,2.0,12.0,77,0.00,,SKC,0.00,VWS V14.01,2013-03-19 03:16:00,
2013-03-18 22:23:00,9.2,3.5,29.85,NW,325,6.0,6.0,77,0.00,,SKC,0.00,VWS V14.01,2013-03-19 03:23:00,
2013-03-18 22:28:00,9.0,3.3,29.85,NNW,339,11.0,11.0,77,0.00,,SKC,0.00,VWS V14.01,2013-03-19 03:28:00,
2013-03-18 22:33:00,9.0,3.3,29.86,WNW,299,6.0,10.0,77,0.00,,SKC,0.00,VWS V14.01,2013-03-19 03:33:00,
2013-03-18 22:38:00,8.6,2.9,29.86,NW,320,11.0,11.0,77,0.00,,SKC,0.00,VWS V14.01,2013-03-19 03:38:00,
2013-03-18 22:43:00,8.6,2.9,29.86,North,350,11.0,11.0,77,0.00,,SKC,0.00,VWS V14.01,2013-03-19 03:43:00,
2013-03-18 22:48:00,8.6,2.9,29.87,NNW,343,3.0,11.0,77,0.00,,SKC,0.00,VWS V14.01,2013-03-19 03:48:00,
2013-03-18 22:53:00,8.6,2.9,29.87,NW,322,7.0,7.0,77,0.00,,SKC,0.00,VWS V14.01,2013-03-19 03:53:00,
2013-03-18 22:58:00,8.4,2.7,29.87,NW,312,5.0,10.0,77,0.00,,SKC,0.00,VWS V14.01,2013-03-19 03:58:00,
2013-03-18 23:00:00,8.4,2.7,29.87,NNW,332,13.0,13.0,77,0.00,,SKC,0.00,VWS V14.01,2013-03-19 04:00:00,
2013-03-18 23:05:00,8.3,2.3,29.87,NNW,328,6.0,6.0,76,0.00,,SKC,0.00,VWS V14.01,2013-03-19 04:05:00,
2013-03-18 23:10:00,8.1,2.1,29.87,WNW,295,8.0,12.0,76,0.00,,SKC,0.00,VWS V14.01,2013-03-19 04:10:00,
2013-03-18 23:17:00,8.1,2.1,29.87,North,349,7.0,7.0,76,0.00,,SKC,0.00,VWS V14.01,2013-03-19 04:17:00,
2013-03-18 23:22:00,8.1,2.1,29.87,NW,325,6.0,6.0,76,0.00,,SKC,0.00,VWS V14.01,2013-03-19 04:22:00,
2013-03-18 23:27:00,8.1,2.1,29.87,NNW,344,12.0,17.0,76,0.00,,SKC,0.00,VWS V14.01,2013-03-19 04:27:00,
2013-03-18 23:34:00,7.9,1.9,29.87,NW,316,10.0,10.0,76,0.00,,SKC,0.00,VWS V14.01,2013-03-19 04:34:00,
2013-03-18 23:40:00,7.7,1.7,29.87,NNW,347,10.0,10.0,76,0.00,,SKC,0.00,VWS V14.01,2013-03-19 04:40:00,
2013-03-18 23:47:00,7.7,2.0,29.88,NNW,343,5.0,5.0,77,0.00,,SKC,0.00,VWS V14.01,2013-03-19 04:47:00,
2013-03-18 23:52:00,7.6,1.9,29.88,NW,322,9.0,16.0,77,0.00,,SKC,0.00,VWS V14.01,2013-03-19 04:52:00,
2013-03-18 23:57:00,7.6,1.9,29.88,NNW,336,8.0,8.0,77,0.00,,SKC,0.00,VWS V14.01,2013-03-19 04:57:00,